createdAt,value
2023-04-24T00:01:26.891Z,28.23
2023-04-24T00:03:54.182Z,24.60
2023-04-24T00:06:21.511Z,25.70
2023-04-24T00:08:48.542Z,27.63
2023-04-24T00:11:15.264Z,25.15
2023-04-24T00:13:42.369Z,28.55
2023-04-24T00:16:09.152Z,28.20
2023-04-24T00:18:36.268Z,26.38
2023-04-24T00:21:03.900Z,25.23
2023-04-24T00:23:31.349Z,27.00
2023-04-24T00:25:58.076Z,26.38
2023-04-24T00:28:25.103Z,27.17
2023-04-24T00:30:51.883Z,27.92
2023-04-24T00:33:18.903Z,25.55
2023-04-24T00:35:45.711Z,24.10
2023-04-24T00:38:12.722Z,28.52
2023-04-24T00:40:39.603Z,23.77
2023-04-24T00:43:08.323Z,26.05
2023-04-24T00:45:36.137Z,25.25
2023-04-24T00:48:03.325Z,23.75
2023-04-24T00:50:30.266Z,25.90
2023-04-24T00:52:57.483Z,28.90
2023-04-24T00:55:24.314Z,24.33
2023-04-24T00:57:51.586Z,22.60
2023-04-24T01:00:18.421Z,22.58
2023-04-24T01:02:46.292Z,24.48
2023-04-24T01:05:14.285Z,26.42
2023-04-24T01:07:44.905Z,24.00
2023-04-24T01:10:12.537Z,23.50
2023-04-24T01:12:39.843Z,24.15
2023-04-24T01:15:07.658Z,25.00
2023-04-24T01:17:34.824Z,22.77
2023-04-24T01:20:01.783Z,22.67
2023-04-24T01:22:28.957Z,22.25
2023-04-24T01:24:55.735Z,22.80
2023-04-24T01:27:22.827Z,22.83
2023-04-24T01:29:50.394Z,22.30
2023-04-24T01:32:17.561Z,24.42
2023-04-24T01:34:44.361Z,21.77
2023-04-24T01:37:11.673Z,19.13
2023-04-24T01:39:38.642Z,25.92
2023-04-24T01:42:06.387Z,22.98
2023-04-24T01:44:33.152Z,20.25
2023-04-24T01:47:01.695Z,21.40
2023-04-24T01:49:28.554Z,18.95
2023-04-24T01:51:55.760Z,17.35
2023-04-24T01:54:22.503Z,22.10
2023-04-24T01:56:49.599Z,19.75
2023-04-24T01:59:16.540Z,23.95
2023-04-24T02:01:43.570Z,21.15
2023-04-24T02:04:10.474Z,17.42
2023-04-24T02:06:37.600Z,18.05
2023-04-24T02:09:04.494Z,18.38
2023-04-24T02:11:31.655Z,16.73
2023-04-24T02:13:58.703Z,19.30
2023-04-24T02:16:26.018Z,17.90
2023-04-24T02:18:52.926Z,17.30
2023-04-24T02:21:20.058Z,18.98
2023-04-24T02:23:46.805Z,17.77
2023-04-24T02:26:14.020Z,16.98
2023-04-24T02:28:40.889Z,17.02
2023-04-24T02:31:08.078Z,15.35
2023-04-24T02:33:34.884Z,16.73
2023-04-24T02:36:02.938Z,16.15
2023-04-24T02:38:30.361Z,16.65
2023-04-24T02:40:57.467Z,16.98
2023-04-24T02:43:24.306Z,17.48
2023-04-24T02:45:51.439Z,15.88
2023-04-24T02:48:18.334Z,16.65
2023-04-24T02:50:45.903Z,16.20
2023-04-24T02:53:12.697Z,14.77
2023-04-24T02:55:39.730Z,15.63
2023-04-24T02:58:07.056Z,17.35
2023-04-24T03:00:34.289Z,17.15
2023-04-24T03:03:01.295Z,15.63
2023-04-24T03:05:28.661Z,16.35
2023-04-24T03:07:55.508Z,17.60
2023-04-24T03:10:23.785Z,13.55
2023-04-24T03:12:50.732Z,13.38
2023-04-24T03:15:17.822Z,13.15
2023-04-24T03:17:44.644Z,11.70
2023-04-24T03:20:11.807Z,13.60
2023-04-24T03:22:38.561Z,12.38
2023-04-24T03:25:06.247Z,15.93
2023-04-24T03:27:33.074Z,13.65
2023-04-24T03:30:00.198Z,13.07
2023-04-24T03:32:26.940Z,14.52
2023-04-24T03:34:54.347Z,12.82
2023-04-24T03:37:21.130Z,11.45
2023-04-24T03:39:48.212Z,13.93
2023-04-24T03:42:15.003Z,11.65
2023-04-24T03:44:42.052Z,11.73
2023-04-24T03:47:08.830Z,12.80
2023-04-24T03:49:35.909Z,10.70
2023-04-24T03:52:02.682Z,14.73
2023-04-24T03:54:29.755Z,17.20
2023-04-24T03:56:56.551Z,16.02
2023-04-24T03:59:23.602Z,16.40
2023-04-24T04:01:50.500Z,16.77
2023-04-24T04:04:17.965Z,14.73
2023-04-24T04:06:45.243Z,13.85
2023-04-24T04:09:12.285Z,15.65
2023-04-24T04:11:39.149Z,17.15
2023-04-24T04:14:06.389Z,19.55
2023-04-24T04:16:33.321Z,13.63
2023-04-24T04:19:00.426Z,13.90
2023-04-24T04:21:28.136Z,14.75
2023-04-24T04:23:55.269Z,14.90
2023-04-24T04:26:22.244Z,17.55
2023-04-24T04:28:50.051Z,14.30
2023-04-24T04:31:16.918Z,15.23
2023-04-24T04:33:44.045Z,14.07
2023-04-24T04:36:10.958Z,14.55
2023-04-24T04:38:38.162Z,11.60
2023-04-24T04:41:05.417Z,14.85
2023-04-24T04:43:33.649Z,13.57
2023-04-24T04:46:01.788Z,13.70
2023-04-24T04:48:29.792Z,13.32
2023-04-24T04:50:56.631Z,13.52
2023-04-24T04:53:23.721Z,14.60
2023-04-24T04:55:50.555Z,13.73
2023-04-24T04:58:17.710Z,16.90
2023-04-24T05:00:45.188Z,15.30
2023-04-24T05:03:20.781Z,16.00
2023-04-24T05:05:48.334Z,13.70
2023-04-24T05:10:45.275Z,13.68
2023-04-24T05:13:14.054Z,12.85
2023-04-24T05:15:41.042Z,15.05
2023-04-24T05:18:08.268Z,13.05
2023-04-24T05:20:35.065Z,12.95
2023-04-24T05:23:02.131Z,12.02
2023-04-24T05:25:28.886Z,16.70
2023-04-24T05:27:55.939Z,13.60
2023-04-24T05:30:22.665Z,14.23
2023-04-24T05:32:49.708Z,14.52
2023-04-24T05:35:16.532Z,19.45
2023-04-24T05:37:43.587Z,13.85
2023-04-24T05:40:10.667Z,15.30
2023-04-24T05:42:37.734Z,16.30
2023-04-24T05:45:05.436Z,15.10
2023-04-24T05:47:32.525Z,15.57
2023-04-24T05:49:59.278Z,13.43
2023-04-24T05:52:26.755Z,11.85
2023-04-24T05:54:53.477Z,13.23
2023-04-24T05:57:20.731Z,11.07
2023-04-24T05:59:47.482Z,11.55
2023-04-24T06:02:14.605Z,12.65
2023-04-24T06:04:41.537Z,12.68
2023-04-24T06:07:08.786Z,11.93
2023-04-24T06:09:35.604Z,12.02
2023-04-24T06:12:03.527Z,11.15
2023-04-24T06:14:30.459Z,11.32
2023-04-24T06:16:57.749Z,10.65
2023-04-24T06:19:24.745Z,11.75
2023-04-24T06:21:51.956Z,13.55
2023-04-24T06:24:18.714Z,11.95
2023-04-24T06:26:46.114Z,13.35
2023-04-24T06:29:12.929Z,13.25
2023-04-24T06:31:40.090Z,10.88
2023-04-24T06:34:06.910Z,9.85
2023-04-24T06:36:35.636Z,10.07
2023-04-24T06:39:02.579Z,11.45
2023-04-24T06:41:30.153Z,10.95
2023-04-24T06:43:56.951Z,10.77
2023-04-24T06:46:27.068Z,9.65
2023-04-24T06:48:56.718Z,10.88
2023-04-24T06:51:27.674Z,12.07
2023-04-24T06:53:54.800Z,9.13
2023-04-24T06:56:22.012Z,9.90
2023-04-24T06:58:49.018Z,10.32
2023-04-24T07:01:16.120Z,9.23
2023-04-24T07:03:43.206Z,9.27
2023-04-24T07:06:11.206Z,8.43
2023-04-24T07:08:38.360Z,10.98
2023-04-24T07:11:05.606Z,10.52
2023-04-24T07:13:32.446Z,10.48
2023-04-24T07:15:59.614Z,8.38
2023-04-24T07:18:26.421Z,8.65
2023-04-24T07:20:53.531Z,10.20
2023-04-24T07:23:21.633Z,11.32
2023-04-24T07:25:48.769Z,8.80
2023-04-24T07:28:15.699Z,10.38
2023-04-24T07:30:42.805Z,9.35
2023-04-24T07:33:09.633Z,8.60
2023-04-24T07:35:36.766Z,11.13
2023-04-24T07:38:03.548Z,8.52
2023-04-24T07:40:30.984Z,7.80
2023-04-24T07:42:57.878Z,8.93
2023-04-24T07:45:27.032Z,8.38
2023-04-24T07:47:53.850Z,9.38
2023-04-24T07:50:21.223Z,7.60
2023-04-24T07:52:48.638Z,9.38
2023-04-24T07:55:15.853Z,7.68
2023-04-24T07:57:42.804Z,7.65
2023-04-24T08:00:10.471Z,8.63
2023-04-24T08:02:37.580Z,6.28
2023-04-24T08:05:05.209Z,7.05
2023-04-24T08:07:32.484Z,9.35
2023-04-24T08:10:00.424Z,6.07
2023-04-24T08:12:27.322Z,5.82
2023-04-24T08:14:54.425Z,5.75
2023-04-24T08:17:21.270Z,8.05
2023-04-24T08:19:52.218Z,7.07
2023-04-24T08:22:19.089Z,8.60
2023-04-24T08:24:46.297Z,6.18
2023-04-24T08:27:13.150Z,6.03
2023-04-24T08:29:40.449Z,4.47
2023-04-24T08:32:07.865Z,6.90
2023-04-24T08:34:35.714Z,6.85
2023-04-24T08:37:02.494Z,6.47
2023-04-24T08:39:29.535Z,7.20
2023-04-24T08:41:56.446Z,4.82
2023-04-24T08:44:23.633Z,4.82
2023-04-24T08:46:50.650Z,4.88
2023-04-24T08:49:18.380Z,5.30
2023-04-24T08:51:45.846Z,5.20
2023-04-24T08:54:13.664Z,5.55
2023-04-24T08:56:40.746Z,7.22
2023-04-24T08:59:07.995Z,5.43
2023-04-24T09:01:35.040Z,4.75
2023-04-24T09:04:05.572Z,4.05
2023-04-24T09:06:33.208Z,4.30
2023-04-24T09:09:04.409Z,5.32
2023-04-24T09:11:31.642Z,4.82
2023-04-24T09:13:58.830Z,6.75
2023-04-24T09:16:26.577Z,7.00
2023-04-24T09:18:53.754Z,4.80
2023-04-24T09:21:22.519Z,5.30
2023-04-24T09:24:00.354Z,4.03
2023-04-24T09:26:27.950Z,4.57
2023-04-24T09:28:55.415Z,5.03
2023-04-24T09:31:23.742Z,7.00
2023-04-24T09:34:01.817Z,6.57
2023-04-24T09:36:29.951Z,4.93
2023-04-24T09:38:59.310Z,8.15
2023-04-24T09:41:26.058Z,4.40
2023-04-24T09:43:54.951Z,4.88
2023-04-24T09:46:23.346Z,5.28
2023-04-24T09:48:50.483Z,5.95
2023-04-24T09:51:17.739Z,5.93
2023-04-24T09:53:48.234Z,5.35
2023-04-24T09:56:15.100Z,3.83
2023-04-24T09:58:42.247Z,3.85
2023-04-24T10:01:09.242Z,5.95
2023-04-24T10:03:36.610Z,4.47
2023-04-24T10:06:09.507Z,5.78
2023-04-24T10:08:37.201Z,6.10
2023-04-24T10:11:04.100Z,3.53
2023-04-24T10:13:31.255Z,5.57
2023-04-24T10:15:58.083Z,4.28
2023-04-24T10:18:25.351Z,5.75
2023-04-24T10:20:52.224Z,6.85
2023-04-24T10:23:20.411Z,4.85
2023-04-24T10:25:47.239Z,3.78
2023-04-24T10:28:14.332Z,6.05
2023-04-24T10:30:41.108Z,4.10
2023-04-24T10:33:09.341Z,3.55
2023-04-24T10:35:38.961Z,4.75
2023-04-24T10:38:13.182Z,4.20
2023-04-24T10:40:40.412Z,3.83
2023-04-24T10:43:09.834Z,3.83
2023-04-24T10:45:36.713Z,4.82
2023-04-24T10:48:06.222Z,3.33
2023-04-24T10:50:53.691Z,3.22
2023-04-24T10:53:24.140Z,4.43
2023-04-24T10:55:52.353Z,4.25
2023-04-24T10:58:23.229Z,3.63
2023-04-24T11:01:00.571Z,4.10
2023-04-24T11:03:29.284Z,3.88
2023-04-24T11:05:59.304Z,3.25
2023-04-24T11:08:40.042Z,3.55
2023-04-24T11:11:11.302Z,5.00
2023-04-24T11:13:56.980Z,5.22
2023-04-24T11:19:08.995Z,5.32
2023-04-24T11:21:58.471Z,6.38
2023-04-24T11:24:40.803Z,6.18
2023-04-24T11:27:12.785Z,4.35
2023-04-24T11:29:40.901Z,5.47
2023-04-24T11:32:26.605Z,4.28
2023-04-24T11:35:28.822Z,6.45
2023-04-24T11:40:29.082Z,6.38
2023-04-24T11:43:00.440Z,4.60
2023-04-24T11:45:29.347Z,5.18
2023-04-24T11:47:56.170Z,5.55
2023-04-24T11:50:24.380Z,4.30
2023-04-24T11:52:51.409Z,3.90
2023-04-24T11:55:18.734Z,5.15
2023-04-24T11:57:58.724Z,3.70
2023-04-24T12:00:32.869Z,4.65
2023-04-24T12:03:08.736Z,5.85
2023-04-24T12:05:36.255Z,9.77
2023-04-24T12:08:03.215Z,3.88
2023-04-24T12:10:31.154Z,4.75
2023-04-24T12:12:58.442Z,5.38
2023-04-24T12:15:25.781Z,5.82
2023-04-24T12:17:53.116Z,4.57
2023-04-24T12:20:33.756Z,6.72
2023-04-24T12:23:01.492Z,6.00
2023-04-24T12:25:29.930Z,7.88
2023-04-24T12:28:13.394Z,8.23
2023-04-24T12:30:42.395Z,5.57
2023-04-24T12:33:09.265Z,5.68
2023-04-24T12:35:36.974Z,5.75
2023-04-24T12:38:09.046Z,7.25
2023-04-24T12:40:36.292Z,6.15
2023-04-24T12:43:03.408Z,7.85
2023-04-24T12:45:30.506Z,8.25
2023-04-24T12:47:57.314Z,8.93
2023-04-24T12:50:24.511Z,8.23
2023-04-24T12:52:51.291Z,7.95
2023-04-24T12:55:18.389Z,8.75
2023-04-24T12:57:45.138Z,7.20
2023-04-24T13:00:12.656Z,7.88
2023-04-24T13:02:39.611Z,9.77
2023-04-24T13:05:07.176Z,27.27
2023-04-24T13:07:33.992Z,46.42
2023-04-24T13:10:01.162Z,51.00
2023-04-24T13:12:28.026Z,34.30
2023-04-24T13:14:55.313Z,30.13
2023-04-24T13:17:22.754Z,32.00
2023-04-24T13:19:51.146Z,32.72
2023-04-24T13:22:19.765Z,26.33
2023-04-24T13:24:49.530Z,24.65
2023-04-24T13:27:16.891Z,22.55
2023-04-24T13:29:44.018Z,26.05
2023-04-24T13:32:10.915Z,26.50
2023-04-24T13:34:38.266Z,22.20
2023-04-24T13:37:05.337Z,18.40
2023-04-24T13:39:32.685Z,19.60
2023-04-24T13:41:59.512Z,20.52
2023-04-24T13:44:26.599Z,17.67
2023-04-24T13:46:55.160Z,18.15
2023-04-24T13:49:22.433Z,17.33
2023-04-24T13:51:49.220Z,14.15
2023-04-24T13:54:16.265Z,16.60
2023-04-24T13:56:43.049Z,17.10
2023-04-24T13:59:10.219Z,12.38
2023-04-24T14:01:37.154Z,13.35
2023-04-24T14:04:04.562Z,11.90
2023-04-24T14:06:32.270Z,13.38
2023-04-24T14:08:59.391Z,9.02
2023-04-24T14:11:26.226Z,13.15
2023-04-24T14:13:53.376Z,10.77
2023-04-24T14:16:20.206Z,9.30
2023-04-24T14:18:46.993Z,10.63
2023-04-24T14:21:14.099Z,12.85
2023-04-24T14:23:40.895Z,9.40
2023-04-24T14:26:08.629Z,8.50
2023-04-24T14:28:35.473Z,10.23
2023-04-24T14:31:02.549Z,8.57
2023-04-24T14:33:29.607Z,8.65
2023-04-24T14:35:56.754Z,10.45
2023-04-24T14:38:23.656Z,10.85
2023-04-24T14:43:21.092Z,8.20
2023-04-24T14:45:48.161Z,8.52
2023-04-24T14:48:15.518Z,8.90
2023-04-24T14:50:42.618Z,10.38
2023-04-24T14:53:09.407Z,10.23
2023-04-24T14:55:37.304Z,9.23
2023-04-24T14:58:04.919Z,12.80
2023-04-24T15:00:32.362Z,8.90
2023-04-24T15:02:59.472Z,11.75
2023-04-24T15:05:26.786Z,13.45
2023-04-24T15:07:53.825Z,14.77
2023-04-24T15:10:23.875Z,14.52
2023-04-24T15:12:50.874Z,16.83
2023-04-24T15:15:18.020Z,18.52
2023-04-24T15:17:44.786Z,21.52
2023-04-24T15:20:12.219Z,21.48
2023-04-24T15:22:39.097Z,21.27
2023-04-24T15:25:06.894Z,21.85
2023-04-24T15:27:41.864Z,26.17
2023-04-24T15:30:09.458Z,28.92
2023-04-24T15:32:36.313Z,41.75
2023-04-24T15:35:08.451Z,36.35
2023-04-24T15:37:37.143Z,40.42
2023-04-24T15:40:06.632Z,36.20
2023-04-24T15:42:33.717Z,42.97
2023-04-24T15:45:00.908Z,47.30
2023-04-24T15:47:27.805Z,41.53
2023-04-24T15:49:54.967Z,37.85
2023-04-24T15:52:22.021Z,42.20
2023-04-24T15:54:49.232Z,34.78
2023-04-24T15:57:16.103Z,35.58
2023-04-24T15:59:43.373Z,36.05
2023-04-24T16:02:10.499Z,36.53
2023-04-24T16:04:37.836Z,37.30
2023-04-24T16:07:04.847Z,37.60
2023-04-24T16:09:32.002Z,41.53
2023-04-24T16:11:58.775Z,36.97
2023-04-24T16:14:26.201Z,42.75
2023-04-24T16:16:53.072Z,38.88
2023-04-24T16:19:20.379Z,42.50
2023-04-24T16:21:47.182Z,39.10
2023-04-24T16:24:14.247Z,41.03
2023-04-24T16:26:41.190Z,43.53
2023-04-24T16:29:08.258Z,44.08
2023-04-24T16:31:35.045Z,37.78
2023-04-24T16:34:02.184Z,36.70
2023-04-24T16:36:29.056Z,42.05
2023-04-24T16:38:56.269Z,37.25
2023-04-24T16:41:23.043Z,40.00
2023-04-24T16:43:50.820Z,40.08
2023-04-24T16:46:17.675Z,35.63
2023-04-24T16:48:44.786Z,38.45
2023-04-24T16:51:11.552Z,36.25
2023-04-24T16:53:38.678Z,37.53
2023-04-24T16:56:05.697Z,37.65
2023-04-24T16:58:32.796Z,37.78
2023-04-24T17:00:59.678Z,35.00
2023-04-24T17:03:26.959Z,37.33
2023-04-24T17:05:53.854Z,37.50
2023-04-24T17:08:22.622Z,35.90
2023-04-24T17:10:49.511Z,34.00
2023-04-24T17:13:16.634Z,34.58
2023-04-24T17:15:43.466Z,35.50
2023-04-24T17:18:11.183Z,33.17
2023-04-24T17:20:37.946Z,31.27
2023-04-24T17:23:05.016Z,29.92
2023-04-24T17:25:31.800Z,30.60
2023-04-24T17:27:58.890Z,30.33
2023-04-24T17:30:25.723Z,28.30
2023-04-24T17:32:52.868Z,29.80
2023-04-24T17:35:22.136Z,27.58
2023-04-24T17:37:49.808Z,29.00
2023-04-24T17:40:17.623Z,28.17
2023-04-24T17:42:44.774Z,30.00
2023-04-24T17:45:12.152Z,26.65
2023-04-24T17:47:39.268Z,26.75
2023-04-24T17:50:06.549Z,24.30
2023-04-24T17:52:34.386Z,26.30
2023-04-24T17:55:01.461Z,25.98
2023-04-24T17:57:28.982Z,26.00
2023-04-24T17:59:55.778Z,24.02
2023-04-24T18:02:22.932Z,27.02
2023-04-24T18:04:50.730Z,25.15
2023-04-24T18:07:18.821Z,24.98
2023-04-24T18:09:45.680Z,23.23
2023-04-24T18:12:12.850Z,23.52
2023-04-24T18:14:39.654Z,24.55
2023-04-24T18:17:07.689Z,25.23
2023-04-24T18:19:34.501Z,25.23
2023-04-24T18:22:01.617Z,22.70
2023-04-24T18:24:28.398Z,24.90
2023-04-24T18:26:55.512Z,24.38
2023-04-24T18:29:22.323Z,25.10
2023-04-24T18:31:49.965Z,21.00
2023-04-24T18:34:16.869Z,20.77
2023-04-24T18:36:43.986Z,19.70
2023-04-24T18:39:10.872Z,19.15
2023-04-24T18:41:37.953Z,23.13
2023-04-24T18:44:04.722Z,20.35
2023-04-24T18:46:34.917Z,21.15
2023-04-24T18:49:01.864Z,19.88
2023-04-24T18:51:28.916Z,20.67
2023-04-24T18:53:55.855Z,19.42
2023-04-24T18:56:23.083Z,19.63
2023-04-24T18:58:50.331Z,22.05
2023-04-24T19:01:17.843Z,20.00
2023-04-24T19:03:44.838Z,17.95
2023-04-24T19:06:12.039Z,20.88
2023-04-24T19:08:38.842Z,18.00
2023-04-24T19:11:06.057Z,18.13
2023-04-24T19:13:32.879Z,17.95
2023-04-24T19:16:00.027Z,16.60
2023-04-24T19:18:27.188Z,15.85
2023-04-24T19:20:54.282Z,16.55
2023-04-24T19:23:21.317Z,15.93
2023-04-24T19:25:48.589Z,15.52
2023-04-24T19:28:15.382Z,16.95
2023-04-24T19:30:42.651Z,12.38
2023-04-24T19:33:09.510Z,14.80
2023-04-24T19:35:36.679Z,13.35
2023-04-24T19:38:03.476Z,11.80
2023-04-24T19:40:30.739Z,11.57
2023-04-24T19:42:57.631Z,12.15
2023-04-24T19:45:24.723Z,12.20
2023-04-24T19:47:51.554Z,11.07
2023-04-24T19:50:18.652Z,11.43
2023-04-24T19:52:45.462Z,11.93
2023-04-24T19:55:12.724Z,13.45
2023-04-24T19:57:39.531Z,10.48
2023-04-24T20:00:08.144Z,10.95
2023-04-24T20:02:35.352Z,8.98
2023-04-24T20:05:02.645Z,12.07
2023-04-24T20:07:29.554Z,13.52
2023-04-24T20:09:56.670Z,10.27
2023-04-24T20:12:23.487Z,9.90
2023-04-24T20:14:50.597Z,9.93
2023-04-24T20:17:17.462Z,10.02
2023-04-24T20:19:44.760Z,11.25
2023-04-24T20:22:13.198Z,12.02
2023-04-24T20:24:40.608Z,9.30
2023-04-24T20:27:07.385Z,9.32
2023-04-24T20:29:35.005Z,12.85
2023-04-24T20:32:01.808Z,12.43
2023-04-24T20:34:28.871Z,14.68
2023-04-24T20:36:57.262Z,13.32
2023-04-24T20:39:24.350Z,14.02
2023-04-24T20:41:51.299Z,12.48
2023-04-24T20:44:18.434Z,15.05
2023-04-24T20:46:45.416Z,11.90
2023-04-24T20:49:12.538Z,11.13
2023-04-24T20:51:39.350Z,13.57
2023-04-24T20:54:06.615Z,12.82
2023-04-24T20:56:33.436Z,14.93
2023-04-24T20:59:00.807Z,13.75
2023-04-24T21:01:27.736Z,14.38
2023-04-24T21:03:54.854Z,14.07
2023-04-24T21:06:21.964Z,10.27
2023-04-24T21:08:49.224Z,14.25
2023-04-24T21:11:15.981Z,12.55
2023-04-24T21:13:43.080Z,12.13
2023-04-24T21:16:09.877Z,12.07
2023-04-24T21:18:41.243Z,11.55
2023-04-24T21:21:11.802Z,13.63
2023-04-24T21:23:39.118Z,9.63
2023-04-24T21:26:06.177Z,10.20
2023-04-24T21:28:33.279Z,10.13
2023-04-24T21:31:00.239Z,11.98
2023-04-24T21:33:27.358Z,11.93
2023-04-24T21:35:54.185Z,9.38
2023-04-24T21:38:24.450Z,10.93
2023-04-24T21:40:51.768Z,9.32
2023-04-24T21:43:19.709Z,9.88
2023-04-24T21:45:48.528Z,9.73
2023-04-24T21:48:15.619Z,9.00
2023-04-24T21:50:42.405Z,9.75
2023-04-24T21:53:09.530Z,10.15
2023-04-24T21:55:36.371Z,8.73
2023-04-24T21:58:03.650Z,9.02
2023-04-24T22:00:30.403Z,9.35
2023-04-24T22:03:54.481Z,8.80
2023-04-24T22:06:21.324Z,7.97
2023-04-24T22:08:48.362Z,10.55
2023-04-24T22:11:25.639Z,9.57
2023-04-24T22:13:54.428Z,10.02
2023-04-24T22:16:22.862Z,16.27
2023-04-24T22:18:50.067Z,8.52
2023-04-24T22:21:16.870Z,8.45
2023-04-24T22:23:43.882Z,7.90
2023-04-24T22:26:10.601Z,9.70
2023-04-24T22:28:37.700Z,9.48
2023-04-24T22:31:04.480Z,9.23
2023-04-24T22:33:31.587Z,9.63
2023-04-24T22:35:58.313Z,9.07
2023-04-24T22:38:25.350Z,8.05
2023-04-24T22:40:52.030Z,9.13
2023-04-24T22:45:58.689Z,8.25
2023-04-24T22:48:25.985Z,8.20
2023-04-24T22:50:52.725Z,9.70
2023-04-24T22:53:19.855Z,7.93
2023-04-24T22:55:46.585Z,8.93
2023-04-24T22:58:13.572Z,7.20
2023-04-24T23:00:40.265Z,9.00
2023-04-24T23:03:07.419Z,8.65
2023-04-24T23:05:34.221Z,6.63
2023-04-24T23:08:01.281Z,7.93
2023-04-24T23:10:28.521Z,5.97
2023-04-24T23:12:55.544Z,6.28
2023-04-24T23:15:22.298Z,6.90
2023-04-24T23:17:49.485Z,5.40
2023-04-24T23:20:16.612Z,7.50
2023-04-24T23:22:43.642Z,6.90
2023-04-24T23:25:10.984Z,5.80
2023-04-24T23:27:37.956Z,5.10
2023-04-24T23:30:06.721Z,6.00
2023-04-24T23:32:33.905Z,6.32
2023-04-24T23:35:00.742Z,6.00
2023-04-24T23:37:27.875Z,5.80
2023-04-24T23:39:54.568Z,6.13
2023-04-24T23:42:21.604Z,5.65
2023-04-24T23:44:48.299Z,5.57
2023-04-24T23:47:15.342Z,5.88
2023-04-24T23:49:41.993Z,6.47
2023-04-24T23:52:09.015Z,6.22
2023-04-24T23:54:35.807Z,5.63
2023-04-24T23:57:03.321Z,5.43
2023-04-24T23:59:30.662Z,6.03
